Time;durP1;ratioP1;P1;durP2;ratioP2;P2;SDS_P1;SDS_P2;PMS_P1;PMS_P2;Temp;Humidity;BMP_temperature;BMP_pressure;BME280_temperature;BME280_humidity;BME280_pressure;Samples;Min_cycle;Max_cycle;Signal;HPM_P1;HPM_P2
2022/10/05 00:08:41;;;;;;;24.48;17.92;;;9.90;99.90;;;;;;21055888;28;20465;-51
2022/10/05 00:18:52;;;;;;;30.63;20.35;;;9.50;99.90;;;;;;21055268;28;20028;-53
2022/10/05 00:28:55;;;;;;;30.27;18.85;;;9.00;99.90;;;;;;21039220;28;20085;-52
2022/10/05 00:39:00;;;;;;;27.10;18.60;;;8.50;99.90;;;;;;21099060;28;20101;-53
2022/10/05 00:49:50;;;;;;;29.13;18.70;;;8.00;99.90;;;;;;21155078;28;20036;-53
2022/10/05 01:00:09;;;;;;;35.05;21.10;;;7.50;99.90;;;;;;20832295;28;20041;-52
2022/10/05 01:10:19;;;;;;;35.53;22.05;;;7.50;99.90;;;;;;20778661;28;20041;-52
2022/10/05 01:20:26;;;;;;;29.00;19.40;;;7.20;99.90;;;;;;20812022;28;20041;-51
2022/10/05 01:31:04;;;;;;;32.45;19.77;;;7.40;99.90;;;;;;20913260;28;20404;-55
2022/10/05 01:41:18;;;;;;;44.25;26.63;;;7.40;99.90;;;;;;21139462;28;20036;-59
2022/10/05 01:51:44;;;;;;;56.67;29.60;;;7.30;99.90;;;;;;21149143;28;20558;-53
2022/10/05 02:02:13;;;;;;;53.42;30.63;;;7.20;99.90;;;;;;21151066;28;20035;-53
2022/10/05 02:12:20;;;;;;;53.72;30.10;;;7.20;99.90;;;;;;21133128;28;20096;-53
2022/10/05 02:22:37;;;;;;;62.28;31.63;;;7.20;99.90;;;;;;21132198;28;20052;-54
2022/10/05 02:33:04;;;;;;;62.85;32.47;;;7.20;99.90;;;;;;21148457;28;20089;-54
2022/10/05 02:43:41;;;;;;;66.97;32.50;;;7.10;99.90;;;;;;20806022;28;20046;-54
2022/10/05 02:54:06;;;;;;;64.95;32.70;;;7.20;99.90;;;;;;20788365;28;20530;-53
2022/10/05 03:04:34;;;;;;;65.00;32.90;;;7.40;99.90;;;;;;20831669;28;20102;-53
2022/10/05 03:15:14;;;;;;;56.03;29.30;;;7.70;99.90;;;;;;20942814;28;20074;-51
2022/10/05 03:25:19;;;;;;;63.20;32.65;;;7.80;99.90;;;;;;21059979;28;20097;-54
2022/10/05 03:35:38;;;;;;;62.88;31.80;;;7.50;99.90;;;;;;21042667;28;20036;-53
2022/10/05 03:45:59;;;;;;;66.88;33.30;;;7.30;99.90;;;;;;21055602;28;20427;-52
2022/10/05 03:56:13;;;;;;;61.83;33.40;;;7.50;99.90;;;;;;21057134;28;20040;-53
2022/10/05 04:06:20;;;;;;;61.78;33.13;;;7.90;99.90;;;;;;21055568;28;20057;-49
2022/10/05 04:16:42;;;;;;;51.47;30.58;;;8.10;99.90;;;;;;21055866;28;20028;-49
2022/10/05 04:26:50;;;;;;;56.25;29.95;;;8.30;99.90;;;;;;21049690;28;20113;-54
2022/10/05 04:37:00;;;;;;;47.75;27.73;;;8.40;99.90;;;;;;21081127;28;20078;-54
2022/10/05 04:47:18;;;;;;;46.97;27.57;;;8.40;99.90;;;;;;21138462;28;20039;-53
2022/10/05 04:57:35;;;;;;;47.58;27.25;;;8.00;99.90;;;;;;21120417;28;20092;-51
2022/10/05 05:07:50;;;;;;;55.65;29.05;;;7.50;99.90;;;;;;21119999;28;20541;-50
2022/10/05 05:18:49;;;;;;;65.15;32.90;;;7.20;99.90;;;;;;21144376;28;20512;-51
2022/10/05 05:29:17;;;;;;;70.70;34.03;;;7.10;99.90;;;;;;20894306;28;20095;-54
2022/10/05 05:39:24;;;;;;;53.60;29.52;;;7.00;99.90;;;;;;20908847;28;20075;-50
2022/10/05 05:50:04;;;;;;;73.38;34.38;;;6.90;99.90;;;;;;20892263;28;20095;-53
2022/10/05 06:00:36;;;;;;;65.70;33.38;;;7.10;99.90;;;;;;20971206;28;20396;-51
2022/10/05 06:10:58;;;;;;;67.10;34.30;;;7.30;99.90;;;;;;21065812;28;20024;-52
2022/10/05 06:21:14;;;;;;;69.20;35.65;;;7.50;99.90;;;;;;21065098;28;20085;-52
2022/10/05 06:31:42;;;;;;;78.03;37.35;;;7.60;99.90;;;;;;20989646;28;20040;-53
2022/10/05 06:41:51;;;;;;;63.50;33.42;;;7.70;99.90;;;;;;21125770;28;20128;-53
2022/10/05 06:52:15;;;;;;;52.92;31.77;;;8.10;99.90;;;;;;21146643;28;20073;-52
2022/10/05 07:02:24;;;;;;;45.17;28.38;;;8.70;99.90;;;;;;20738967;28;20558;-54
2022/10/05 07:12:32;;;;;;;37.95;24.92;;;9.50;99.90;;;;;;20737020;28;20046;-51
2022/10/05 07:22:58;;;;;;;26.83;19.35;;;10.50;99.90;;;;;;20721231;28;20050;-61
2022/10/05 07:33:08;;;;;;;27.10;20.70;;;11.80;99.90;;;;;;20823698;28;20039;-49
2022/10/05 07:43:45;;;;;;;21.67;17.50;;;12.70;99.90;;;;;;21062061;28;20040;-49
2022/10/05 07:54:24;;;;;;;19.67;15.63;;;13.80;99.90;;;;;;21041053;28;20413;-50
2022/10/05 08:04:36;;;;;;;18.73;14.73;;;14.60;99.90;;;;;;21073057;28;20184;-48
2022/10/05 08:15:14;;;;;;;18.40;14.93;;;15.20;99.90;;;;;;21048733;28;20044;-58
2022/10/05 08:25:53;;;;;;;18.67;15.15;;;15.40;99.90;;;;;;21038734;28;20031;-57
2022/10/05 08:36:11;;;;;;;18.73;15.63;;;15.60;99.90;;;;;;21074142;28;20446;-48
2022/10/05 08:46:44;;;;;;;17.00;13.10;;;15.90;99.90;;;;;;21155316;28;20035;-51
2022/10/05 08:57:14;;;;;;;17.73;14.38;;;16.50;99.90;;;;;;21153773;28;20440;-48
2022/10/05 09:07:42;;;;;;;20.13;13.88;;;16.40;99.90;;;;;;21135703;28;20437;-48
2022/10/05 09:18:10;;;;;;;20.25;14.82;;;16.10;99.90;;;;;;21136603;28;20385;-48
2022/10/05 09:28:33;;;;;;;22.00;16.45;;;17.00;99.90;;;;;;21136657;28;20032;-48
2022/10/05 09:38:50;;;;;;;19.95;16.33;;;17.60;99.90;;;;;;21135886;28;20446;-46
2022/10/05 09:49:25;;;;;;;19.15;16.58;;;18.20;99.90;;;;;;21136382;28;20081;-48
2022/10/05 09:59:34;;;;;;;21.40;18.10;;;17.90;99.90;;;;;;21117532;28;20085;-50
2022/10/05 10:10:07;;;;;;;25.88;19.90;;;17.20;99.90;;;;;;20965639;28;20036;-48
2022/10/05 10:20:24;;;;;;;24.65;19.13;;;16.40;99.90;;;;;;20994304;28;20401;-52
2022/10/05 10:30:41;;;;;;;29.85;22.42;;;15.40;99.90;;;;;;21039360;28;20185;-58
2022/10/05 10:41:12;;;;;;;28.50;22.95;;;14.80;99.90;;;;;;21061511;28;20040;-47
2022/10/05 10:51:50;;;;;;;32.00;24.90;;;14.60;99.90;;;;;;21163884;28;20442;-49
2022/10/05 11:02:11;;;;;;;35.35;27.20;;;14.30;99.90;;;;;;21160450;28;20032;-57
2022/10/05 11:13:08;;;;;;;46.78;32.15;;;13.80;99.90;;;;;;21143188;28;20080;-48
2022/10/05 11:23:32;;;;;;;38.90;28.73;;;13.50;99.90;;;;;;20849562;28;20430;-47
2022/10/05 11:34:02;;;;;;;41.97;30.80;;;13.30;99.90;;;;;;20867031;28;20041;-57
2022/10/05 11:44:23;;;;;;;38.58;29.13;;;13.20;99.90;;;;;;20883528;28;20112;-48
2022/10/05 11:54:52;;;;;;;41.15;30.83;;;13.10;99.90;;;;;;21037790;28;20335;-50
2022/10/05 12:05:13;;;;;;;47.88;33.15;;;13.00;99.90;;;;;;20980550;28;20052;-57
2022/10/05 12:15:40;;;;;;;48.92;33.28;;;13.00;99.90;;;;;;20963829;28;20144;-49
2022/10/05 12:26:13;;;;;;;44.47;29.90;;;12.90;99.90;;;;;;20945036;28;20045;-51
2022/10/05 12:36:25;;;;;;;38.58;28.23;;;13.40;99.90;;;;;;20759189;28;20045;-57
2022/10/05 12:46:40;;;;;;;41.88;29.45;;;13.60;99.90;;;;;;20879449;28;20485;-48
2022/10/05 12:57:11;;;;;;;38.50;29.30;;;13.90;99.90;;;;;;20878996;28;20084;-48
2022/10/05 13:07:51;;;;;;;38.80;28.08;;;14.10;99.90;;;;;;20956292;28;20080;-51
2022/10/05 13:18:32;;;;;;;42.50;31.30;;;13.90;99.90;;;;;;21136744;28;20593;-47
2022/10/05 13:28:47;;;;;;;41.42;28.65;;;13.90;99.90;;;;;;20796030;28;20034;-51
2022/10/05 13:38:55;;;;;;;42.50;30.08;;;13.70;99.90;;;;;;20841847;28;20550;-57
2022/10/05 13:49:22;;;;;;;41.85;30.95;;;13.50;99.90;;;;;;20909223;28;20041;-50
2022/10/05 13:59:32;;;;;;;40.35;31.38;;;13.40;99.90;;;;;;20924342;28;20044;-47
2022/10/05 14:09:35;;;;;;;40.15;30.45;;;13.40;99.90;;;;;;20973890;28;20074;-52
2022/10/05 14:19:58;;;;;;;43.10;31.85;;;13.50;99.90;;;;;;20966799;28;20505;-50
2022/10/05 14:30:22;;;;;;;40.42;29.27;;;13.60;99.90;;;;;;20856737;28;20048;-51
2022/10/05 14:40:36;;;;;;;45.78;33.60;;;13.80;99.90;;;;;;20905594;28;20394;-48
2022/10/05 14:51:02;;;;;;;39.38;28.13;;;13.90;99.90;;;;;;20886495;28;20099;-53
2022/10/05 15:01:21;;;;;;;39.38;30.15;;;14.00;99.90;;;;;;20904677;28;20494;-47
2022/10/05 15:11:46;;;;;;;39.15;28.17;;;14.00;99.90;;;;;;21062361;28;20135;-48
2022/10/05 15:22:26;;;;;;;50.30;34.65;;;13.90;99.90;;;;;;21145214;28;20061;-52
2022/10/05 15:32:28;;;;;;;;;;;13.70;99.90;;;;;;21136906;28;20028;-55
2022/10/05 15:42:37;;;;;;;43.88;30.38;;;13.30;99.90;;;;;;21068390;28;19916;-57
2022/10/05 15:52:42;;;;;;;47.95;34.13;;;12.80;99.90;;;;;;21041335;28;20484;-50
2022/10/05 16:03:10;;;;;;;54.25;36.83;;;12.60;99.90;;;;;;21058130;28;20028;-53
2022/10/05 16:13:33;;;;;;;61.30;40.00;;;12.30;99.90;;;;;;21056654;28;20093;-57
2022/10/05 16:23:49;;;;;;;89.50;48.67;;;12.10;99.90;;;;;;21037686;28;20043;-48
2022/10/05 16:34:17;;;;;;;75.97;44.75;;;12.00;99.90;;;;;;21057462;28;20065;-57
2022/10/05 16:44:30;;;;;;;50.28;32.80;;;11.80;99.90;;;;;;21064924;28;20478;-49
2022/10/05 16:54:56;;;;;;;55.08;33.35;;;11.40;99.90;;;;;;21095157;28;20093;-47
2022/10/05 17:05:28;;;;;;;56.80;34.38;;;10.50;99.90;;;;;;21115566;28;20493;-56
2022/10/05 17:16:03;;;;;;;61.10;35.10;;;9.90;99.90;;;;;;21063357;28;20028;-59
2022/10/05 17:26:46;;;;;;;66.68;36.03;;;9.30;99.90;;;;;;20649709;28;20054;-51
2022/10/05 17:36:52;;;;;;;75.30;38.30;;;9.00;99.90;;;;;;20685089;28;20045;-51
2022/10/05 17:46:58;;;;;;;74.05;37.60;;;8.90;99.90;;;;;;20811672;28;20053;-52
2022/10/05 17:57:17;;;;;;;96.85;46.03;;;8.70;99.90;;;;;;20968631;28;20060;-53
2022/10/05 18:07:22;;;;;;;96.90;45.28;;;8.50;99.90;;;;;;21150825;28;20031;-57
2022/10/05 18:17:40;;;;;;;102.30;47.00;;;8.40;99.90;;;;;;21149889;28;20139;-53
2022/10/05 18:28:19;;;;;;;112.60;48.75;;;8.40;99.90;;;;;;21114869;28;20439;-49
2022/10/05 18:38:22;;;;;;;101.57;43.63;;;8.40;99.90;;;;;;21131365;28;20055;-50
2022/10/05 18:48:33;;;;;;;122.75;54.42;;;8.50;99.90;;;;;;21145061;27;20047;-52
2022/10/05 18:59:06;;;;;;;96.68;46.22;;;8.60;99.90;;;;;;21145214;28;20035;-50
2022/10/05 19:09:24;;;;;;;98.78;44.83;;;8.80;99.90;;;;;;21095034;28;20081;-53
2022/10/05 19:20:05;;;;;;;94.30;43.70;;;8.50;99.90;;;;;;21060223;28;20085;-53
2022/10/05 19:30:17;;;;;;;102.47;47.30;;;8.30;99.90;;;;;;20838906;28;20037;-49
2022/10/05 19:40:55;;;;;;;153.27;59.33;;;8.20;99.90;;;;;;20883986;28;20414;-50
2022/10/05 19:51:01;;;;;;;195.30;71.55;;;8.40;99.90;;;;;;20601846;28;20051;-59
2022/10/05 20:01:07;;;;;;;117.93;51.42;;;8.70;99.90;;;;;;20699866;28;20041;-51
2022/10/05 20:11:21;;;;;;;96.40;45.10;;;8.60;99.90;;;;;;20711449;28;20042;-50
2022/10/05 20:21:47;;;;;;;134.15;56.40;;;8.40;99.90;;;;;;20782847;28;20073;-53
2022/10/05 20:31:50;;;;;;;82.85;39.83;;;8.50;99.90;;;;;;21055223;28;20101;-52
2022/10/05 20:41:52;;;;;;;120.30;53.97;;;8.40;99.90;;;;;;21054047;28;20165;-50
2022/10/05 20:51:57;;;;;;;133.60;55.08;;;8.30;99.90;;;;;;21052544;28;20509;-60
2022/10/05 21:02:00;;;;;;;108.70;48.97;;;8.30;99.90;;;;;;21053581;28;20094;-50
2022/10/05 21:12:03;;;;;;;106.28;47.45;;;8.40;99.90;;;;;;20969561;28;20040;-51
2022/10/05 21:22:07;;;;;;;158.18;62.00;;;8.20;99.90;;;;;;21008087;28;20044;-49
2022/10/05 21:32:10;;;;;;;98.88;46.20;;;8.40;99.90;;;;;;21066146;28;20074;-49
2022/10/05 21:42:12;;;;;;;154.25;59.47;;;8.20;99.90;;;;;;21052121;28;20141;-59
2022/10/05 21:52:16;;;;;;;109.70;47.60;;;8.00;99.90;;;;;;21051440;28;20565;-50
2022/10/05 22:02:18;;;;;;;124.38;50.95;;;7.90;99.90;;;;;;21062088;28;20028;-49
2022/10/05 22:12:23;;;;;;;143.10;55.42;;;7.90;99.90;;;;;;21068065;28;20069;-50
2022/10/05 22:22:27;;;;;;;96.57;43.63;;;8.00;99.90;;;;;;21065406;28;20478;-52
2022/10/05 22:32:29;;;;;;;98.35;44.70;;;7.90;99.90;;;;;;21064530;28;20052;-50
2022/10/05 22:42:32;;;;;;;106.50;44.67;;;7.80;99.90;;;;;;21064104;28;20062;-52
2022/10/05 22:52:35;;;;;;;118.35;48.08;;;7.70;99.90;;;;;;21064209;28;20036;-53
2022/10/05 23:02:39;;;;;;;122.32;49.55;;;7.60;99.90;;;;;;21064340;28;20032;-48
2022/10/05 23:12:43;;;;;;;121.28;49.95;;;7.60;99.90;;;;;;20979627;28;20059;-51
2022/10/05 23:22:45;;;;;;;104.53;44.85;;;7.50;99.90;;;;;;21021746;28;20117;-52
2022/10/05 23:32:47;;;;;;;79.07;37.72;;;7.60;99.90;;;;;;21060142;28;20477;-48
2022/10/05 23:42:50;;;;;;;96.75;44.38;;;7.50;99.90;;;;;;21043658;28;20082;-50
2022/10/05 23:52:53;;;;;;;133.57;54.83;;;7.20;99.90;;;;;;21058072;28;20040;-48
